Time;durP1;ratioP1;P1;durP2;ratioP2;P2;SDS_P1;SDS_P2;PMS_P1;PMS_P2;Temp;Humidity;BMP_temperature;BMP_pressure;BME280_temperature;BME280_humidity;BME280_pressure;Samples;Min_cycle;Max_cycle;Signal;HPM_P1;HPM_P2
2023/10/26 00:00:18;;;;;;;;;;;9.70;91.80;;;;;;4987292;28;19998;-66
2023/10/26 00:02:44;;;;;;;;;;;9.70;91.80;;;;;;4987965;28;19929;-66
2023/10/26 00:05:10;;;;;;;;;;;9.80;91.80;;;;;;4987938;28;20583;-65
2023/10/26 00:07:35;;;;;;;;;;;9.70;91.80;;;;;;4987341;28;20008;-66
2023/10/26 00:10:01;;;;;;;;;;;9.80;91.90;;;;;;4987595;28;20412;-66
2023/10/26 00:12:26;;;;;;;;;;;9.70;91.80;;;;;;4987343;28;20071;-66
2023/10/26 00:14:52;;;;;;;;;;;9.80;91.90;;;;;;4987683;28;20004;-66
2023/10/26 00:17:18;;;;;;;;;;;9.80;91.80;;;;;;4985484;28;20005;-66
2023/10/26 00:19:43;;;;;;;;;;;9.80;91.80;;;;;;4987780;28;20465;-66
2023/10/26 00:22:09;;;;;;;;;;;9.80;91.90;;;;;;4986909;28;20016;-65
2023/10/26 00:24:34;;;;;;;;;;;9.80;91.90;;;;;;4987404;28;19922;-66
2023/10/26 00:27:00;;;;;;;;;;;9.80;91.80;;;;;;4981966;28;19925;-65
2023/10/26 00:29:26;;;;;;;;;;;9.80;91.80;;;;;;4987029;28;19925;-66
2023/10/26 00:31:51;;;;;;;;;;;9.80;91.80;;;;;;4987037;28;20389;-66
2023/10/26 00:34:17;;;;;;;;;;;9.80;91.80;;;;;;4986984;28;20404;-65
2023/10/26 00:36:45;;;;;;;;;;;9.80;91.80;;;;;;4981541;28;20533;-65
2023/10/26 00:39:11;;;;;;;;;;;9.80;91.80;;;;;;4970329;28;19923;-66
2023/10/26 00:41:37;;;;;;;;;;;9.80;91.80;;;;;;4987360;28;20423;-65
2023/10/26 00:44:03;;;;;;;;;;;9.80;91.90;;;;;;4986726;28;20306;-66
2023/10/26 00:46:29;;;;;;;;;;;9.80;91.90;;;;;;4986845;28;19921;-66
2023/10/26 00:48:55;;;;;;;;;;;9.80;91.70;;;;;;4986589;28;20296;-65
2023/10/26 00:51:21;;;;;;;;;;;9.60;91.60;;;;;;4987262;28;19921;-66
2023/10/26 00:53:47;;;;;;;;;;;9.60;91.90;;;;;;4987074;28;20013;-66
2023/10/26 00:56:14;;;;;;;;;;;9.60;91.90;;;;;;4985495;28;19969;-66
2023/10/26 00:58:39;;;;;;;;;;;9.50;91.70;;;;;;4986694;28;20439;-66
2023/10/26 01:01:05;;;;;;;;;;;9.40;92.00;;;;;;4987274;28;19922;-66
2023/10/26 01:03:31;;;;;;;;;;;9.30;92.10;;;;;;4986979;28;20289;-66
2023/10/26 01:05:57;;;;;;;;;;;9.40;92.30;;;;;;5053079;28;19929;-66
2023/10/26 01:08:23;;;;;;;;;;;9.40;92.30;;;;;;4986500;28;19922;-65
2023/10/26 01:10:49;;;;;;;;;;;9.30;92.30;;;;;;4986739;28;20008;-65
2023/10/26 01:13:15;;;;;;;;;;;9.40;92.30;;;;;;4972754;28;20008;-66
2023/10/26 01:15:40;;;;;;;;;;;9.30;92.30;;;;;;4982811;28;20404;-66
2023/10/26 01:18:06;;;;;;;;;;;9.30;92.10;;;;;;4986686;28;19961;-66
2023/10/26 01:20:31;;;;;;;;;;;9.30;92.30;;;;;;4971125;28;19923;-66
2023/10/26 01:22:57;;;;;;;;;;;9.30;92.30;;;;;;4986652;28;20382;-65
2023/10/26 01:25:22;;;;;;;;;;;9.30;92.40;;;;;;4986682;28;19975;-66
2023/10/26 01:27:48;;;;;;;;;;;9.40;92.30;;;;;;4987126;28;19925;-65
2023/10/26 01:30:14;;;;;;;;;;;9.40;92.30;;;;;;4989449;28;19965;-66
2023/10/26 01:32:39;;;;;;;;;;;9.40;92.20;;;;;;4989965;28;19932;-66
2023/10/26 01:35:05;;;;;;;;;;;9.40;92.20;;;;;;4990065;28;19929;-66
2023/10/26 01:37:30;;;;;;;;;;;9.30;91.90;;;;;;4989836;28;19922;-65
2023/10/26 01:39:56;;;;;;;;;;;9.20;92.10;;;;;;4989050;28;19929;-66
2023/10/26 01:42:21;;;;;;;;;;;9.20;92.40;;;;;;4988403;28;19928;-66
2023/10/26 01:44:47;;;;;;;;;;;9.20;92.50;;;;;;4989554;28;20293;-66
2023/10/26 01:47:13;;;;;;;;;;;9.20;92.50;;;;;;4990196;28;19925;-66
2023/10/26 01:49:38;;;;;;;;;;;9.20;92.60;;;;;;4989907;28;20547;-66
2023/10/26 01:52:04;;;;;;;;;;;9.20;92.50;;;;;;4983101;28;19982;-65
2023/10/26 01:54:29;;;;;;;;;;;9.30;92.60;;;;;;4970399;28;19929;-67
2023/10/26 01:56:55;;;;;;;;;;;9.30;92.60;;;;;;4970690;28;19926;-66
2023/10/26 01:59:21;;;;;;;;;;;9.30;92.60;;;;;;4972515;28;20001;-66
2023/10/26 02:01:46;;;;;;;;;;;9.30;92.50;;;;;;4989619;28;19929;-66
2023/10/26 02:04:12;;;;;;;;;;;9.40;92.50;;;;;;4987129;28;20675;-66
2023/10/26 02:06:37;;;;;;;;;;;9.40;92.50;;;;;;4970403;28;19980;-66
2023/10/26 02:09:03;;;;;;;;;;;9.40;92.60;;;;;;4970580;28;19976;-65
2023/10/26 02:11:28;;;;;;;;;;;9.40;92.50;;;;;;4975896;28;19922;-65
2023/10/26 02:13:54;;;;;;;;;;;9.50;92.50;;;;;;4989138;28;19922;-65
2023/10/26 02:16:20;;;;;;;;;;;9.50;92.60;;;;;;4988700;28;19969;-65
2023/10/26 02:18:45;;;;;;;;;;;9.60;92.60;;;;;;4989228;28;19922;-65
2023/10/26 02:21:11;;;;;;;;;;;9.60;92.60;;;;;;4977014;28;19922;-66
2023/10/26 02:23:38;;;;;;;;;;;9.60;92.60;;;;;;4989236;28;20020;-65
2023/10/26 02:26:04;;;;;;;;;;;9.70;92.60;;;;;;4989270;28;19967;-65
2023/10/26 02:28:30;;;;;;;;;;;9.60;92.70;;;;;;4988955;28;19922;-66
2023/10/26 02:30:55;;;;;;;;;;;9.60;92.70;;;;;;4989697;28;19921;-66
2023/10/26 02:33:20;;;;;;;;;;;9.70;92.80;;;;;;4988941;28;19922;-66
2023/10/26 02:35:46;;;;;;;;;;;9.70;92.80;;;;;;4989103;28;19921;-65
2023/10/26 02:38:12;;;;;;;;;;;9.60;93.00;;;;;;4988720;28;19980;-66
2023/10/26 02:40:38;;;;;;;;;;;9.70;93.00;;;;;;4988642;28;19929;-66
2023/10/26 02:43:03;;;;;;;;;;;9.70;93.00;;;;;;4988972;28;19968;-66
2023/10/26 02:45:30;;;;;;;;;;;9.60;93.00;;;;;;4988915;28;19926;-65
2023/10/26 02:47:56;;;;;;;;;;;9.70;93.10;;;;;;4988679;28;19961;-65
2023/10/26 02:50:21;;;;;;;;;;;9.70;93.10;;;;;;4988717;28;19985;-66
2023/10/26 02:52:47;;;;;;;;;;;9.60;93.10;;;;;;4988700;28;19928;-66
2023/10/26 02:55:12;;;;;;;;;;;9.70;93.10;;;;;;4976374;28;19922;-65
2023/10/26 02:57:38;;;;;;;;;;;9.70;93.10;;;;;;4971247;28;19934;-66
2023/10/26 03:00:05;;;;;;;;;;;9.70;93.10;;;;;;4988712;28;19929;-66
2023/10/26 03:02:30;;;;;;;;;;;9.70;93.10;;;;;;4988907;28;19951;-66
2023/10/26 03:04:56;;;;;;;;;;;9.70;93.10;;;;;;4988611;28;19921;-65
2023/10/26 03:07:24;;;;;;;;;;;9.70;93.10;;;;;;4978046;28;19926;-65
2023/10/26 03:09:50;;;;;;;;;;;9.60;93.00;;;;;;4988665;28;19925;-67
2023/10/26 03:12:16;;;;;;;;;;;9.70;93.10;;;;;;4988350;28;19983;-65
2023/10/26 03:14:41;;;;;;;;;;;9.70;93.10;;;;;;4988314;28;19922;-65
2023/10/26 03:17:07;;;;;;;;;;;9.60;93.10;;;;;;4988119;28;20017;-66
2023/10/26 03:19:32;;;;;;;;;;;9.60;93.10;;;;;;4988267;28;20297;-66
2023/10/26 03:21:58;;;;;;;;;;;9.60;93.00;;;;;;4988788;28;20388;-65
2023/10/26 03:24:24;;;;;;;;;;;9.60;93.00;;;;;;4988221;28;19971;-66
2023/10/26 03:26:49;;;;;;;;;;;9.60;93.00;;;;;;4988233;28;19975;-65
2023/10/26 03:29:15;;;;;;;;;;;9.60;93.00;;;;;;4987919;28;20282;-65
2023/10/26 03:31:41;;;;;;;;;;;9.60;93.00;;;;;;4988165;28;19964;-65
2023/10/26 03:34:07;;;;;;;;;;;9.60;93.10;;;;;;4988344;28;19975;-65
2023/10/26 03:36:33;;;;;;;;;;;9.60;93.00;;;;;;4988052;28;19925;-66
2023/10/26 03:38:58;;;;;;;;;;;9.70;93.00;;;;;;4987005;28;20346;-65
2023/10/26 03:41:24;;;;;;;;;;;9.60;92.80;;;;;;4975699;28;19921;-66
2023/10/26 03:43:50;;;;;;;;;;;9.50;93.00;;;;;;4975460;28;19930;-66
2023/10/26 03:46:15;;;;;;;;;;;9.50;93.00;;;;;;4973089;28;19969;-66
2023/10/26 03:48:41;;;;;;;;;;;9.50;93.00;;;;;;4988128;28;19957;-66
2023/10/26 03:51:06;;;;;;;;;;;9.50;93.00;;;;;;5009975;28;20009;-65
2023/10/26 03:53:32;;;;;;;;;;;9.50;92.90;;;;;;4986948;28;20350;-66
2023/10/26 03:55:58;;;;;;;;;;;9.50;92.90;;;;;;4987830;28;19922;-65
2023/10/26 03:58:23;;;;;;;;;;;9.50;92.90;;;;;;4987278;28;19929;-66
2023/10/26 04:00:51;;;;;;;;;;;9.60;92.90;;;;;;4988050;28;20332;-66
2023/10/26 04:03:16;;;;;;;;;;;9.50;92.80;;;;;;4977129;28;19922;-66
2023/10/26 04:05:42;;;;;;;;;;;9.50;92.70;;;;;;5035324;28;20401;-66
2023/10/26 04:08:07;;;;;;;;;;;9.50;92.80;;;;;;5053003;28;19967;-65
2023/10/26 04:10:34;;;;;;;;;;;9.30;92.70;;;;;;4987964;28;20340;-66
2023/10/26 04:12:59;;;;;;;;;;;9.30;92.80;;;;;;4977115;28;19967;-65
2023/10/26 04:15:25;;;;;;;;;;;9.20;92.90;;;;;;4967950;28;19926;-66
2023/10/26 04:17:51;;;;;;;;;;;9.20;93.00;;;;;;4982913;28;19922;-65
2023/10/26 04:20:16;;;;;;;;;;;9.20;93.00;;;;;;4987649;28;19922;-65
2023/10/26 04:22:42;;;;;;;;;;;9.30;93.10;;;;;;4987257;28;19922;-66
2023/10/26 04:25:07;;;;;;;;;;;9.20;93.10;;;;;;4987183;28;19921;-67
2023/10/26 04:27:33;;;;;;;;;;;9.20;93.10;;;;;;4987189;28;19925;-66
2023/10/26 04:29:58;;;;;;;;;;;9.20;93.00;;;;;;4987536;28;19986;-66
2023/10/26 04:32:24;;;;;;;;;;;9.20;93.00;;;;;;4981631;28;19934;-66
2023/10/26 04:34:50;;;;;;;;;;;9.20;93.00;;;;;;4980310;28;19933;-66
2023/10/26 04:37:15;;;;;;;;;;;9.20;93.00;;;;;;4982369;28;19933;-67
2023/10/26 04:39:43;;;;;;;;;;;9.20;93.00;;;;;;4967672;28;20331;-65
2023/10/26 04:42:09;;;;;;;;;;;9.10;92.90;;;;;;4973775;28;19928;-65
2023/10/26 04:44:35;;;;;;;;;;;9.10;92.90;;;;;;4987361;28;19922;-66
2023/10/26 04:47:01;;;;;;;;;;;9.10;92.80;;;;;;4986608;28;19922;-65
2023/10/26 04:49:26;;;;;;;;;;;9.10;92.80;;;;;;4986745;28;19921;-66
2023/10/26 04:51:52;;;;;;;;;;;9.10;92.80;;;;;;4986505;28;19922;-65
2023/10/26 04:54:17;;;;;;;;;;;9.10;92.80;;;;;;4972111;28;20012;-66
2023/10/26 04:56:43;;;;;;;;;;;9.10;92.80;;;;;;4986709;28;20419;-66
2023/10/26 04:59:08;;;;;;;;;;;9.00;92.80;;;;;;4986559;28;19932;-66
2023/10/26 05:01:34;;;;;;;;;;;9.00;92.70;;;;;;4985036;28;19934;-65
2023/10/26 05:03:59;;;;;;;;;;;9.00;92.70;;;;;;4970243;28;19922;-65
2023/10/26 05:06:25;;;;;;;;;;;9.00;92.70;;;;;;4973420;28;19991;-65
2023/10/26 05:08:50;;;;;;;;;;;9.00;92.60;;;;;;4990339;28;19928;-66
2023/10/26 05:11:16;;;;;;;;;;;8.90;92.60;;;;;;4990490;28;20282;-66
2023/10/26 05:13:41;;;;;;;;;;;8.90;92.50;;;;;;4984500;28;20313;-66
2023/10/26 05:16:07;;;;;;;;;;;9.00;92.50;;;;;;4986755;28;19922;-65
2023/10/26 05:18:33;;;;;;;;;;;8.90;92.40;;;;;;4985163;28;19929;-66
2023/10/26 05:20:59;;;;;;;;;;;8.90;92.40;;;;;;4975918;28;19980;-66
2023/10/26 05:23:25;;;;;;;;;;;8.90;92.40;;;;;;4972067;28;19926;-64
2023/10/26 05:25:50;;;;;;;;;;;9.00;92.40;;;;;;5056526;28;20363;-66
2023/10/26 05:28:16;;;;;;;;;;;8.90;92.30;;;;;;4987545;28;19922;-65
2023/10/26 05:30:42;;;;;;;;;;;9.00;92.30;;;;;;4983083;28;19922;-63
2023/10/26 05:33:07;;;;;;;;;;;9.00;92.50;;;;;;4983784;28;19961;-63
2023/10/26 05:35:33;;;;;;;;;;;9.10;92.60;;;;;;4985153;28;19932;-63
2023/10/26 05:37:58;;;;;;;;;;;9.10;92.50;;;;;;4989953;28;20695;-67
2023/10/26 05:40:24;;;;;;;;;;;9.10;92.50;;;;;;4986608;28;20013;-66
2023/10/26 05:42:50;;;;;;;;;;;9.10;92.30;;;;;;5056677;28;19922;-66
2023/10/26 05:45:16;;;;;;;;;;;9.10;92.20;;;;;;4985585;28;19922;-67
2023/10/26 05:47:41;;;;;;;;;;;9.10;92.20;;;;;;4988018;28;19933;-66
2023/10/26 05:50:07;;;;;;;;;;;9.00;92.20;;;;;;4978318;28;19922;-67
2023/10/26 05:52:33;;;;;;;;;;;9.00;92.20;;;;;;4970327;28;20648;-67
2023/10/26 05:54:58;;;;;;;;;;;9.00;92.10;;;;;;5044570;28;19960;-67
2023/10/26 05:57:25;;;;;;;;;;;9.00;92.10;;;;;;4990672;28;20009;-67
2023/10/26 05:59:51;;;;;;;;;;;8.90;92.10;;;;;;4989173;28;19925;-67
2023/10/26 06:02:17;;;;;;;;;;;9.00;92.10;;;;;;4987409;28;20333;-68
2023/10/26 06:04:43;;;;;;;;;;;8.90;92.00;;;;;;5028992;28;20018;-66
2023/10/26 06:07:08;;;;;;;;;;;8.90;92.00;;;;;;5045174;28;20630;-67
2023/10/26 06:09:34;;;;;;;;;;;8.90;92.00;;;;;;4988219;28;20684;-67
2023/10/26 06:11:59;;;;;;;;;;;8.90;92.00;;;;;;4985257;28;21679;-67
2023/10/26 06:14:25;;;;;;;;;;;8.90;92.00;;;;;;4979887;28;20302;-67
2023/10/26 06:16:50;;;;;;;;;;;8.90;91.90;;;;;;5044370;28;20281;-67
2023/10/26 06:19:16;;;;;;;;;;;8.80;91.80;;;;;;4987022;28;19926;-67
2023/10/26 06:21:42;;;;;;;;;;;8.90;91.80;;;;;;4987460;28;19921;-68
2023/10/26 06:24:07;;;;;;;;;;;8.80;91.80;;;;;;4976942;28;19922;-67
2023/10/26 06:26:33;;;;;;;;;;;8.80;91.80;;;;;;4972440;28;19926;-68
2023/10/26 06:28:59;;;;;;;;;;;8.80;91.70;;;;;;4986321;28;20309;-66
2023/10/26 06:31:24;;;;;;;;;;;8.70;91.60;;;;;;4987081;28;19925;-66
2023/10/26 06:33:50;;;;;;;;;;;8.70;91.70;;;;;;4988322;28;19944;-67
2023/10/26 06:36:15;;;;;;;;;;;8.70;91.70;;;;;;4987678;28;19976;-67
2023/10/26 06:38:41;;;;;;;;;;;8.70;91.80;;;;;;4987057;28;20023;-67
2023/10/26 06:41:07;;;;;;;;;;;8.80;91.80;;;;;;4986970;28;20340;-69
2023/10/26 06:43:33;;;;;;;;;;;8.80;91.80;;;;;;4986744;28;19979;-65
2023/10/26 06:45:59;;;;;;;;;;;8.80;91.90;;;;;;4986988;28;19922;-64
2023/10/26 06:48:25;;;;;;;;;;;8.90;92.00;;;;;;4985403;28;20301;-63
2023/10/26 06:50:56;;;;;;;;;;;9.00;92.00;;;;;;4984329;28;19921;-63
2023/10/26 06:53:22;;;;;;;;;;;9.00;91.90;;;;;;4967567;28;20449;-64
2023/10/26 06:55:47;;;;;;;;;;;9.00;91.90;;;;;;4969521;28;19977;-63
2023/10/26 06:58:13;;;;;;;;;;;9.00;91.90;;;;;;4984122;28;19977;-63
2023/10/26 07:00:38;;;;;;;;;;;9.10;91.90;;;;;;4988615;28;19933;-63
2023/10/26 07:03:04;;;;;;;;;;;9.00;91.90;;;;;;4973733;28;19932;-64
2023/10/26 07:05:29;;;;;;;;;;;9.00;91.70;;;;;;4986981;28;19922;-65
2023/10/26 07:07:55;;;;;;;;;;;8.90;91.70;;;;;;4987253;28;20452;-64
2023/10/26 07:10:20;;;;;;;;;;;8.90;91.60;;;;;;4987607;28;19925;-63
2023/10/26 07:12:46;;;;;;;;;;;8.90;91.70;;;;;;4983142;28;19928;-63
2023/10/26 07:15:12;;;;;;;;;;;8.90;91.70;;;;;;4984484;28;19922;-63
2023/10/26 07:17:38;;;;;;;;;;;8.90;91.60;;;;;;4987222;28;20007;-64
2023/10/26 07:20:05;;;;;;;;;;;8.90;91.60;;;;;;4987510;28;19929;-63
2023/10/26 07:22:34;;;;;;;;;;;8.90;91.50;;;;;;4979877;28;19922;-64
2023/10/26 07:24:59;;;;;;;;;;;8.90;91.50;;;;;;4987575;28;19967;-64
2023/10/26 07:27:25;;;;;;;;;;;8.90;91.50;;;;;;4980674;28;19930;-64
2023/10/26 07:29:50;;;;;;;;;;;8.80;91.40;;;;;;4987848;28;19930;-63
2023/10/26 07:32:16;;;;;;;;;;;8.90;91.50;;;;;;4986340;28;19928;-64
2023/10/26 07:34:41;;;;;;;;;;;9.10;93.70;;;;;;5001543;28;19926;-67
2023/10/26 07:37:07;;;;;;;;;;;10.20;97.20;;;;;;4985975;28;19929;-64
2023/10/26 07:39:34;;;;;;;;;;;10.60;93.00;;;;;;4980796;28;19987;-63
2023/10/26 07:42:00;;;;;;;;;;;10.70;92.30;;;;;;4986273;28;19929;-63
2023/10/26 07:44:26;;;;;;;;;;;10.50;92.00;;;;;;5027497;28;20350;-64
2023/10/26 07:46:52;;;;;;;;;;;10.30;91.50;;;;;;4981461;28;19926;-65
2023/10/26 07:49:17;;;;;;;;;;;11.00;92.10;;;;;;4968066;28;19979;-64
2023/10/26 07:51:43;;;;;;;;;;;11.60;89.40;;;;;;4968520;28;19922;-64
2023/10/26 07:54:09;;;;;;;;;;;12.20;86.90;;;;;;4968056;28;19929;-64
2023/10/26 07:56:36;;;;;;;;;;;12.50;83.10;;;;;;4985772;28;20391;-64
2023/10/26 07:59:01;;;;;;;;;;;12.80;82.40;;;;;;4985757;28;19969;-64
2023/10/26 08:01:27;;;;;;;;;;;13.00;80.90;;;;;;4986462;28;20365;-66
2023/10/26 08:03:52;;;;;;;;;;;13.00;79.90;;;;;;4982068;28;19929;-66
2023/10/26 08:06:18;;;;;;;;;;;12.90;80.70;;;;;;4985091;28;19928;-64
2023/10/26 08:08:45;;;;;;;;;;;12.60;80.20;;;;;;4987011;28;20648;-63
2023/10/26 08:11:12;;;;;;;;;;;12.40;81.20;;;;;;4983016;28;19922;-64
2023/10/26 08:13:38;;;;;;;;;;;12.10;82.00;;;;;;4982222;28;19926;-64
2023/10/26 08:16:04;;;;;;;;;;;11.80;82.70;;;;;;4984190;28;20017;-63
2023/10/26 08:18:29;;;;;;;;;;;11.60;83.40;;;;;;4981604;28;19934;-63
2023/10/26 08:20:55;;;;;;;;;;;11.30;83.70;;;;;;4987015;28;19921;-64
2023/10/26 08:23:21;;;;;;;;;;;11.10;84.30;;;;;;4981506;28;20400;-63
2023/10/26 08:25:47;;;;;;;;;;;11.00;84.90;;;;;;4984696;28;19925;-64
2023/10/26 08:28:16;;;;;;;;;;;10.80;85.40;;;;;;4984519;28;19922;-63
2023/10/26 08:30:41;;;;;;;;;;;10.60;85.80;;;;;;5053201;28;19934;-63
2023/10/26 08:33:07;;;;;;;;;;;10.60;86.40;;;;;;4974884;28;19926;-63
2023/10/26 08:35:33;;;;;;;;;;;10.60;86.70;;;;;;4983252;28;19926;-63
2023/10/26 08:37:58;;;;;;;;;;;10.50;87.00;;;;;;5051692;28;19921;-63
2023/10/26 08:40:24;;;;;;;;;;;10.50;87.30;;;;;;4981433;28;19921;-63
2023/10/26 08:42:50;;;;;;;;;;;10.50;87.60;;;;;;4986947;28;19922;-63
2023/10/26 08:45:27;;;;;;;;;;;10.50;87.90;;;;;;4982915;28;19930;-64
2023/10/26 08:47:52;;;;;;;;;;;10.40;88.30;;;;;;4977901;28;19979;-63
2023/10/26 08:50:19;;;;;;;;;;;10.40;88.50;;;;;;5045924;28;20115;-63
2023/10/26 08:52:45;;;;;;;;;;;10.50;88.70;;;;;;5016728;28;20322;-63
2023/10/26 08:55:11;;;;;;;;;;;10.50;89.00;;;;;;4986309;28;20040;-63
2023/10/26 08:57:50;;;;;;;;;;;10.50;89.10;;;;;;4979324;28;19988;-64
2023/10/26 09:00:16;;;;;;;;;;;10.50;89.30;;;;;;4967145;28;20397;-61
2023/10/26 09:02:41;;;;;;;;;;;10.50;89.40;;;;;;4967032;28;19930;-62
2023/10/26 09:05:08;;;;;;;;;;;10.60;89.50;;;;;;4985321;28;19922;-66
2023/10/26 09:07:34;;;;;;;;;;;11.30;96.00;;;;;;4977367;28;20374;-64
2023/10/26 09:09:59;;;;;;;;;;;11.30;91.70;;;;;;4980666;28;19929;-65
2023/10/26 09:12:25;;;;;;;;;;;11.30;91.40;;;;;;4977801;28;19979;-65
2023/10/26 09:15:00;;;;;;;;;;;11.20;91.10;;;;;;4967291;28;19975;-65
2023/10/26 09:17:27;;;;;;;;;;;11.10;91.10;;;;;;4979509;28;20000;-66
2023/10/26 09:19:53;;;;;;;;;;;11.10;91.10;;;;;;4986273;28;19922;-66
2023/10/26 09:22:18;;;;;;;;;;;11.10;90.90;;;;;;4980628;28;19922;-65
2023/10/26 09:24:44;;;;;;;;;;;11.10;91.00;;;;;;4986026;28;20454;-65
2023/10/26 09:27:18;;;;;;;;;;;11.10;91.00;;;;;;5053187;28;20021;-65
2023/10/26 09:29:44;;;;;;;;;;;11.20;91.00;;;;;;4985288;28;20011;-65
2023/10/26 09:32:10;;;;;;;;;;;11.20;91.00;;;;;;5022409;28;19922;-66
2023/10/26 09:34:42;;;;;;;;;;;11.20;90.90;;;;;;5034595;28;20377;-65
2023/10/26 09:37:09;;;;;;;;;;;11.10;90.90;;;;;;4972336;28;19945;-65
2023/10/26 09:39:36;;;;;;;;;;;11.00;90.90;;;;;;4980742;28;19923;-65
2023/10/26 09:42:02;;;;;;;;;;;11.10;91.00;;;;;;4980828;28;19922;-65
2023/10/26 09:44:29;;;;;;;;;;;11.10;91.10;;;;;;4984971;28;20289;-65
2023/10/26 09:46:55;;;;;;;;;;;11.10;91.10;;;;;;5033675;28;19922;-65
2023/10/26 09:49:22;;;;;;;;;;;11.10;91.10;;;;;;4966745;28;19989;-66
2023/10/26 09:51:47;;;;;;;;;;;11.10;91.10;;;;;;4968987;28;19922;-65
2023/10/26 09:54:14;;;;;;;;;;;11.20;91.10;;;;;;4969624;28;20286;-65
2023/10/26 09:56:42;;;;;;;;;;;11.20;91.10;;;;;;4968194;28;19944;-65
2023/10/26 09:59:08;;;;;;;;;;;11.20;91.10;;;;;;4968614;28;19926;-66
2023/10/26 10:01:36;;;;;;;;;;;11.20;91.10;;;;;;4979186;28;20383;-65
2023/10/26 10:04:03;;;;;;;;;;;11.20;91.10;;;;;;5036657;28;19922;-65
2023/10/26 10:06:42;;;;;;;;;;;11.30;91.20;;;;;;4978784;28;20442;-66
2023/10/26 10:09:08;;;;;;;;;;;11.20;91.10;;;;;;5056656;28;19961;-66
2023/10/26 10:11:33;;;;;;;;;;;11.30;91.00;;;;;;4988848;28;20417;-66
2023/10/26 10:13:59;;;;;;;;;;;11.20;91.20;;;;;;4981943;28;20350;-66
2023/10/26 10:16:33;;;;;;;;;;;11.20;91.20;;;;;;4981686;28;20447;-66
2023/10/26 10:19:18;;;;;;;;;;;11.20;91.10;;;;;;4989128;28;19922;-66
2023/10/26 10:21:44;;;;;;;;;;;11.20;91.20;;;;;;4988786;28;20325;-65
2023/10/26 10:24:09;;;;;;;;;;;11.20;91.20;;;;;;4989239;28;19926;-66
2023/10/26 10:26:53;;;;;;;;;;;11.20;91.20;;;;;;4988562;28;19922;-66
2023/10/26 10:29:20;;;;;;;;;;;11.30;91.30;;;;;;5020500;28;20574;-66
2023/10/26 10:31:46;;;;;;;;;;;11.30;91.30;;;;;;4982304;28;19933;-65
2023/10/26 10:34:15;;;;;;;;;;;11.30;91.20;;;;;;5039911;28;19926;-64
2023/10/26 10:37:01;;;;;;;;;;;11.30;91.30;;;;;;4988618;28;20665;-66
2023/10/26 10:39:26;;;;;;;;;;;11.40;91.40;;;;;;4981412;28;19922;-65
2023/10/26 10:41:52;;;;;;;;;;;11.40;91.30;;;;;;4980016;28;19928;-65
2023/10/26 10:44:18;;;;;;;;;;;11.40;91.30;;;;;;4988672;28;19929;-65
2023/10/26 10:46:47;;;;;;;;;;;11.40;91.30;;;;;;4982737;28;19921;-66
2023/10/26 10:49:12;;;;;;;;;;;11.50;91.40;;;;;;4985700;28;19922;-66
2023/10/26 10:51:42;;;;;;;;;;;11.60;91.40;;;;;;5026940;28;20345;-65
2023/10/26 10:54:12;;;;;;;;;;;11.60;91.40;;;;;;4988487;28;19932;-65
2023/10/26 10:56:42;;;;;;;;;;;11.60;91.40;;;;;;4988093;28;20271;-65
2023/10/26 10:59:14;;;;;;;;;;;11.60;91.30;;;;;;4987579;28;19961;-65
2023/10/26 11:01:40;;;;;;;;;;;11.60;91.30;;;;;;4973078;28;19926;-65
2023/10/26 11:04:06;;;;;;;;;;;11.60;91.30;;;;;;4969751;28;19929;-65
2023/10/26 11:06:32;;;;;;;;;;;11.80;91.40;;;;;;4977700;28;19967;-65
2023/10/26 11:08:58;;;;;;;;;;;11.70;91.30;;;;;;4968945;28;19926;-65
2023/10/26 11:11:27;;;;;;;;;;;11.70;91.00;;;;;;4967201;28;19922;-64
2023/10/26 11:14:09;;;;;;;;;;;11.70;91.10;;;;;;5019057;28;19925;-65
2023/10/26 11:16:35;;;;;;;;;;;11.80;91.20;;;;;;4968767;28;19958;-65
2023/10/26 11:19:01;;;;;;;;;;;11.90;91.10;;;;;;4968994;28;19922;-65
2023/10/26 11:21:26;;;;;;;;;;;12.00;91.20;;;;;;4968364;28;19922;-65
2023/10/26 11:23:52;;;;;;;;;;;12.00;91.10;;;;;;4969071;28;20094;-65
2023/10/26 11:26:17;;;;;;;;;;;12.00;90.80;;;;;;4968759;28;19922;-65
2023/10/26 11:28:43;;;;;;;;;;;11.90;90.70;;;;;;4983968;28;20381;-65
2023/10/26 11:31:08;;;;;;;;;;;12.00;90.60;;;;;;5053660;28;19933;-65
2023/10/26 11:33:39;;;;;;;;;;;12.00;90.70;;;;;;4985627;28;19932;-65
2023/10/26 11:36:12;;;;;;;;;;;12.10;90.60;;;;;;4985957;28;19929;-65
2023/10/26 11:38:47;;;;;;;;;;;12.10;90.60;;;;;;4986281;28;19929;-65
2023/10/26 11:41:22;;;;;;;;;;;12.10;90.60;;;;;;4986717;28;19921;-65
2023/10/26 11:43:48;;;;;;;;;;;12.10;90.50;;;;;;4987946;28;20427;-65
2023/10/26 11:46:14;;;;;;;;;;;12.10;90.40;;;;;;4987837;28;19926;-65
2023/10/26 11:48:39;;;;;;;;;;;12.20;90.40;;;;;;4988012;28;19979;-65
2023/10/26 11:51:06;;;;;;;;;;;12.30;90.40;;;;;;4986846;28;19925;-63
2023/10/26 11:53:32;;;;;;;;;;;12.30;90.40;;;;;;4984319;28;19933;-64
2023/10/26 11:55:58;;;;;;;;;;;12.40;90.40;;;;;;4986330;28;19947;-64
2023/10/26 11:58:24;;;;;;;;;;;12.60;90.60;;;;;;4984373;28;19928;-65
2023/10/26 12:00:49;;;;;;;;;;;12.60;90.20;;;;;;4986267;28;19926;-63
2023/10/26 12:03:15;;;;;;;;;;;12.60;90.10;;;;;;4983812;28;19922;-63
2023/10/26 12:05:40;;;;;;;;;;;12.50;90.00;;;;;;4981861;28;19928;-64
2023/10/26 12:08:06;;;;;;;;;;;12.50;89.50;;;;;;4986363;28;19922;-64
2023/10/26 12:10:31;;;;;;;;;;;12.50;89.70;;;;;;4987212;28;20027;-65
2023/10/26 12:13:00;;;;;;;;;;;12.50;89.70;;;;;;4986237;28;19945;-65
2023/10/26 12:15:26;;;;;;;;;;;12.50;89.70;;;;;;4984245;28;19925;-66
2023/10/26 12:17:51;;;;;;;;;;;12.50;89.70;;;;;;5052205;28;20301;-65
2023/10/26 12:20:17;;;;;;;;;;;12.50;89.60;;;;;;4986617;28;19922;-65
2023/10/26 12:22:42;;;;;;;;;;;12.50;89.60;;;;;;4990849;28;20345;-65
2023/10/26 12:25:10;;;;;;;;;;;12.50;89.50;;;;;;4984506;28;19930;-64
2023/10/26 12:27:36;;;;;;;;;;;12.50;89.30;;;;;;4984892;28;20063;-64
2023/10/26 12:30:02;;;;;;;;;;;12.50;89.50;;;;;;4985182;28;20012;-65
2023/10/26 12:32:27;;;;;;;;;;;12.60;89.60;;;;;;4984743;28;19983;-65
2023/10/26 12:34:53;;;;;;;;;;;12.60;89.50;;;;;;4984472;28;20677;-65
2023/10/26 12:37:18;;;;;;;;;;;12.50;89.20;;;;;;5052301;28;19928;-65
2023/10/26 12:39:44;;;;;;;;;;;12.50;89.40;;;;;;4986457;28;19922;-65
2023/10/26 12:42:09;;;;;;;;;;;12.60;89.60;;;;;;4986550;28;20017;-65
2023/10/26 12:44:35;;;;;;;;;;;12.60;89.60;;;;;;4987032;28;19929;-65
2023/10/26 12:47:01;;;;;;;;;;;12.60;89.40;;;;;;4987246;28;19976;-65
2023/10/26 12:49:26;;;;;;;;;;;12.60;89.50;;;;;;4987665;28;19926;-65
2023/10/26 12:51:52;;;;;;;;;;;12.70;89.60;;;;;;4987101;28;19980;-65
2023/10/26 12:54:18;;;;;;;;;;;12.70;89.30;;;;;;4987368;28;19921;-64
2023/10/26 12:56:43;;;;;;;;;;;12.80;89.30;;;;;;4987271;28;19932;-65
2023/10/26 12:59:09;;;;;;;;;;;12.80;89.30;;;;;;4987056;28;19921;-66
2023/10/26 13:01:35;;;;;;;;;;;12.80;89.20;;;;;;4987201;28;19979;-65
2023/10/26 13:04:00;;;;;;;;;;;12.80;88.60;;;;;;4986361;28;19921;-64
2023/10/26 13:06:26;;;;;;;;;;;12.80;88.80;;;;;;5039055;28;19926;-65
2023/10/26 13:08:51;;;;;;;;;;;12.80;88.70;;;;;;4979216;28;19936;-65
2023/10/26 13:11:17;;;;;;;;;;;12.80;88.60;;;;;;4977631;28;19945;-65
2023/10/26 13:13:42;;;;;;;;;;;12.80;88.70;;;;;;4967885;28;19926;-65
2023/10/26 13:16:11;;;;;;;;;;;12.80;88.60;;;;;;4967474;28;19922;-66
2023/10/26 13:18:37;;;;;;;;;;;12.90;88.50;;;;;;4967154;28;19922;-65
2023/10/26 13:21:03;;;;;;;;;;;12.80;88.00;;;;;;4967428;28;19921;-65
2023/10/26 13:23:28;;;;;;;;;;;12.80;88.20;;;;;;4975812;28;20398;-65
2023/10/26 13:25:54;;;;;;;;;;;12.90;88.10;;;;;;4989201;28;20340;-65
2023/10/26 13:28:20;;;;;;;;;;;13.00;88.40;;;;;;4989915;28;20320;-65
2023/10/26 13:30:46;;;;;;;;;;;13.00;88.40;;;;;;4990126;28;19928;-65
2023/10/26 13:33:12;;;;;;;;;;;13.10;88.30;;;;;;4985400;28;19925;-65
2023/10/26 13:35:38;;;;;;;;;;;13.10;88.00;;;;;;4970728;28;20373;-64
2023/10/26 13:38:03;;;;;;;;;;;13.10;87.60;;;;;;4970496;28;19929;-64
2023/10/26 13:40:29;;;;;;;;;;;13.00;87.30;;;;;;4970655;28;19982;-64
2023/10/26 13:42:54;;;;;;;;;;;13.10;87.30;;;;;;4970614;28;19929;-65
2023/10/26 13:45:20;;;;;;;;;;;13.10;87.50;;;;;;4970685;28;19922;-65
2023/10/26 13:47:46;;;;;;;;;;;13.10;87.40;;;;;;4981070;28;20443;-64
2023/10/26 13:50:11;;;;;;;;;;;13.10;87.50;;;;;;4989650;28;19921;-64
2023/10/26 13:52:40;;;;;;;;;;;13.10;87.50;;;;;;4987981;28;19922;-65
2023/10/26 13:55:05;;;;;;;;;;;13.10;87.40;;;;;;5005113;28;19943;-65
2023/10/26 13:57:31;;;;;;;;;;;13.10;87.40;;;;;;5071559;28;20380;-66
2023/10/26 13:59:57;;;;;;;;;;;13.10;87.50;;;;;;4996541;28;19937;-65
2023/10/26 14:02:23;;;;;;;;;;;13.10;87.60;;;;;;5027061;28;19927;-65
2023/10/26 14:04:49;;;;;;;;;;;13.10;87.70;;;;;;4979010;28;19922;-65
2023/10/26 14:07:15;;;;;;;;;;;13.10;87.70;;;;;;4972322;28;19944;-65
2023/10/26 14:09:41;;;;;;;;;;;13.10;87.60;;;;;;4988231;28;19922;-65
2023/10/26 14:12:07;;;;;;;;;;;13.10;87.80;;;;;;5037257;28;19930;-65
2023/10/26 14:14:35;;;;;;;;;;;13.10;87.70;;;;;;4972966;28;19921;-65
2023/10/26 14:17:03;;;;;;;;;;;13.20;87.80;;;;;;4989105;28;19922;-65